createdAt,value
2018-07-28T00:01:17.904Z,32.80
2018-07-28T00:03:45.657Z,32.70
2018-07-28T00:06:13.378Z,33.20
2018-07-28T00:08:41.150Z,33.20
2018-07-28T00:11:08.839Z,33.30
2018-07-28T00:13:36.642Z,33.60
2018-07-28T00:16:04.390Z,33.80
2018-07-28T00:18:32.127Z,33.70
2018-07-28T00:20:59.857Z,34.20
2018-07-28T00:23:27.597Z,33.90
2018-07-28T00:26:00.915Z,34.00
2018-07-28T00:28:28.610Z,34.40
2018-07-28T00:30:56.299Z,34.40
2018-07-28T00:33:23.966Z,34.60
2018-07-28T00:35:51.905Z,34.70
2018-07-28T00:38:19.727Z,34.70
2018-07-28T00:40:47.523Z,34.70
2018-07-28T00:43:15.329Z,34.90
2018-07-28T00:45:43.083Z,34.90
2018-07-28T00:48:10.835Z,35.00
2018-07-28T00:53:06.824Z,35.30
2018-07-28T00:55:34.760Z,35.70
2018-07-28T00:58:02.695Z,36.00
2018-07-28T01:00:30.547Z,36.20
2018-07-28T01:02:58.567Z,36.30
2018-07-28T01:05:26.304Z,36.20
2018-07-28T01:07:54.063Z,36.20
2018-07-28T01:10:21.859Z,36.60
2018-07-28T01:12:49.617Z,36.70
2018-07-28T01:15:17.383Z,37.20
2018-07-28T01:17:45.188Z,37.50
2018-07-28T01:20:13.024Z,37.50
2018-07-28T01:22:41.091Z,37.40
2018-07-28T01:25:10.403Z,37.20
2018-07-28T01:27:38.610Z,37.40
2018-07-28T01:30:08.682Z,37.40
2018-07-28T01:32:36.418Z,37.40
2018-07-28T01:35:04.632Z,37.30
2018-07-28T01:37:32.431Z,38.20
2018-07-28T01:40:00.202Z,37.70
2018-07-28T01:42:27.983Z,37.90
2018-07-28T01:44:55.684Z,38.20
2018-07-28T01:47:23.570Z,39.00
2018-07-28T01:49:51.315Z,39.70
2018-07-28T01:52:19.108Z,39.50
2018-07-28T01:54:46.877Z,39.90
2018-07-28T01:57:14.647Z,40.50
2018-07-28T01:59:42.473Z,40.60
2018-07-28T02:02:10.188Z,40.70
2018-07-28T02:04:37.954Z,40.70
2018-07-28T02:07:05.762Z,40.40
2018-07-28T02:09:33.571Z,40.30
2018-07-28T02:12:01.333Z,40.70
2018-07-28T02:14:29.077Z,40.10
2018-07-28T02:16:56.878Z,40.30
2018-07-28T02:19:24.764Z,39.40
2018-07-28T02:21:52.622Z,39.40
2018-07-28T02:24:20.400Z,39.20
2018-07-28T02:29:15.760Z,39.20
2018-07-28T02:31:43.510Z,39.30
2018-07-28T02:34:11.259Z,39.70
2018-07-28T02:44:02.927Z,40.10
2018-07-28T02:46:30.684Z,40.30
2018-07-28T02:51:26.238Z,40.50
2018-07-28T02:56:21.660Z,41.10
2018-07-28T03:01:17.012Z,41.40
2018-07-28T03:03:44.766Z,41.70
2018-07-28T03:06:12.505Z,41.00
2018-07-28T03:11:07.989Z,40.70
2018-07-28T03:13:35.774Z,40.80
2018-07-28T03:16:09.587Z,40.40
2018-07-28T03:18:37.320Z,41.40
2018-07-28T03:21:05.144Z,42.50
2018-07-28T03:23:32.892Z,44.50
2018-07-28T03:26:00.686Z,45.00
2018-07-28T03:28:28.405Z,45.50
2018-07-28T03:30:56.139Z,45.90
2018-07-28T03:33:23.887Z,46.60
2018-07-28T03:35:51.635Z,47.30
2018-07-28T03:40:47.054Z,48.50
2018-07-28T03:43:14.838Z,49.00
2018-07-28T03:45:42.614Z,49.10
2018-07-28T03:48:10.359Z,49.90
2018-07-28T03:50:38.143Z,50.50
2018-07-28T03:53:05.928Z,50.50
2018-07-28T03:55:33.675Z,51.50
2018-07-28T03:58:01.416Z,52.30
2018-07-28T04:00:29.183Z,52.50
2018-07-28T04:02:56.970Z,53.10
2018-07-28T04:05:24.686Z,53.10
2018-07-28T04:07:52.450Z,53.50
2018-07-28T04:10:20.185Z,54.10
2018-07-28T04:12:47.942Z,54.10
2018-07-28T04:15:15.707Z,54.10
2018-07-28T04:17:49.033Z,54.30
2018-07-28T04:20:16.787Z,54.10
2018-07-28T04:22:44.541Z,54.40
2018-07-28T04:25:12.337Z,54.40
2018-07-28T04:27:40.311Z,54.50
2018-07-28T04:32:36.168Z,54.90
2018-07-28T04:35:04.040Z,54.10
2018-07-28T04:37:31.774Z,53.60
2018-07-28T04:42:27.184Z,53.00
2018-07-28T04:44:54.923Z,52.70
2018-07-28T04:47:22.659Z,52.70
2018-07-28T04:49:50.459Z,53.30
2018-07-28T04:52:18.228Z,51.70
2018-07-28T04:54:45.984Z,50.50
2018-07-28T04:57:13.723Z,50.40
2018-07-28T04:59:41.775Z,50.00
2018-07-28T05:02:09.720Z,49.90
2018-07-28T05:04:37.495Z,49.90
2018-07-28T05:09:32.954Z,50.10
2018-07-28T05:12:00.676Z,49.80
2018-07-28T05:14:28.419Z,50.60
2018-07-28T05:16:56.148Z,50.70
2018-07-28T05:19:23.927Z,50.70
2018-07-28T05:21:51.675Z,49.80
2018-07-28T05:24:19.664Z,50.70
2018-07-28T05:26:47.415Z,51.10
2018-07-28T05:29:15.131Z,51.10
2018-07-28T05:31:42.891Z,51.80
2018-07-28T05:34:10.607Z,51.90
2018-07-28T05:36:38.427Z,51.70
2018-07-28T05:39:08.872Z,51.70
2018-07-28T05:41:36.640Z,52.90
2018-07-28T05:44:04.507Z,52.70
2018-07-28T05:46:32.265Z,53.60
2018-07-28T05:49:00.053Z,53.50
2018-07-28T05:51:28.643Z,53.40
2018-07-28T05:53:56.406Z,53.20
2018-07-28T05:56:24.203Z,54.00
2018-07-28T05:58:52.276Z,54.60
2018-07-28T06:01:20.072Z,55.50
2018-07-28T06:03:47.767Z,57.50
2018-07-28T06:06:15.541Z,57.30
2018-07-28T06:08:43.328Z,56.50
2018-07-28T06:11:11.107Z,58.00
2018-07-28T06:13:38.927Z,58.40
2018-07-28T06:16:06.703Z,59.00
2018-07-28T06:18:34.469Z,60.50
2018-07-28T06:21:02.191Z,60.00
2018-07-28T06:25:57.649Z,60.60
2018-07-28T06:28:25.391Z,60.90
2018-07-28T06:30:53.189Z,59.80
2018-07-28T06:33:20.939Z,60.20
2018-07-28T06:35:48.711Z,61.30
2018-07-28T06:38:16.534Z,61.00
2018-07-28T06:43:11.952Z,61.70
2018-07-28T06:45:39.686Z,61.40
2018-07-28T06:48:07.491Z,61.20
2018-07-28T06:53:02.954Z,60.40
2018-07-28T06:55:30.735Z,60.50
2018-07-28T06:57:58.539Z,60.60
2018-07-28T07:00:26.347Z,61.60
2018-07-28T07:02:54.088Z,64.50
2018-07-28T07:05:21.833Z,64.10
2018-07-28T07:07:49.595Z,65.10
2018-07-28T07:10:17.360Z,64.50
2018-07-28T07:12:45.190Z,66.20
2018-07-28T07:15:12.927Z,65.20
2018-07-28T07:17:40.679Z,63.90
2018-07-28T07:22:36.207Z,65.00
2018-07-28T07:27:31.639Z,61.80
2018-07-28T07:29:59.495Z,61.80
2018-07-28T07:34:54.943Z,63.10
2018-07-28T07:39:50.355Z,61.90
2018-07-28T07:42:18.199Z,61.80
2018-07-28T07:44:45.975Z,61.30
2018-07-28T07:47:13.932Z,59.20
2018-07-28T07:49:41.735Z,59.10
2018-07-28T07:52:09.457Z,58.60
2018-07-28T07:54:37.667Z,58.50
2018-07-28T07:57:05.907Z,57.20
2018-07-28T07:59:33.630Z,56.80
2018-07-28T08:02:01.709Z,58.10
2018-07-28T08:04:29.495Z,56.90
2018-07-28T08:06:57.200Z,58.00
2018-07-28T08:09:24.932Z,57.80
2018-07-28T08:11:52.667Z,58.40
2018-07-28T08:14:20.372Z,58.00
2018-07-28T08:16:48.067Z,58.30
2018-07-28T08:21:43.355Z,57.40
2018-07-28T08:24:11.087Z,57.50
2018-07-28T08:26:38.841Z,58.10
2018-07-28T08:31:34.164Z,57.30
2018-07-28T08:34:01.846Z,56.20
2018-07-28T08:36:29.591Z,55.00
2018-07-28T08:38:57.283Z,55.50
2018-07-28T08:41:25.018Z,53.00
2018-07-28T08:43:52.722Z,51.00
2018-07-28T08:46:20.422Z,52.50
2018-07-28T08:51:15.939Z,51.10
2018-07-28T08:53:43.630Z,50.70
2018-07-28T08:56:11.356Z,48.90
2018-07-28T08:58:39.323Z,47.60
2018-07-28T09:01:07.040Z,46.50
2018-07-28T09:03:34.785Z,45.30
2018-07-28T09:06:02.611Z,43.60
2018-07-28T09:08:30.283Z,42.30
2018-07-28T09:10:58.015Z,42.60
2018-07-28T09:13:25.750Z,41.20
2018-07-28T09:15:53.439Z,42.20
2018-07-28T09:18:21.234Z,44.20
2018-07-28T09:20:48.928Z,43.00
2018-07-28T09:23:16.620Z,42.30
2018-07-28T09:25:44.363Z,42.90
2018-07-28T09:28:12.055Z,43.00
2018-07-28T09:30:39.884Z,42.90
2018-07-28T09:33:07.612Z,44.10
2018-07-28T09:35:35.401Z,41.50
2018-07-28T09:38:03.207Z,39.70
2018-07-28T09:40:30.928Z,35.60
2018-07-28T09:42:58.696Z,34.40
2018-07-28T09:47:54.060Z,34.80
2018-07-28T09:50:21.791Z,35.20
2018-07-28T09:52:49.519Z,35.80
2018-07-28T09:55:17.272Z,39.30
2018-07-28T09:57:45.016Z,39.40
2018-07-28T10:00:17.283Z,37.70
2018-07-28T10:02:44.992Z,35.40
2018-07-28T10:05:12.722Z,35.70
2018-07-28T10:07:40.490Z,36.50
2018-07-28T10:10:08.230Z,37.50
2018-07-28T10:12:35.957Z,37.10
2018-07-28T10:15:03.961Z,35.90
2018-07-28T10:17:31.728Z,37.00
2018-07-28T10:19:59.495Z,39.20
2018-07-28T10:22:27.278Z,38.50
2018-07-28T10:24:55.001Z,39.20
2018-07-28T10:27:22.739Z,38.40
2018-07-28T10:29:50.477Z,36.70
2018-07-28T10:32:18.235Z,34.00
2018-07-28T10:34:45.981Z,32.80
2018-07-28T10:37:14.687Z,30.20
2018-07-28T10:39:42.478Z,28.10
2018-07-28T10:42:10.218Z,27.20
2018-07-28T10:44:37.967Z,25.90
2018-07-28T10:47:05.691Z,24.60
2018-07-28T10:52:01.056Z,24.10
2018-07-28T10:54:28.799Z,21.30
2018-07-28T10:56:56.532Z,19.90
2018-07-28T10:59:24.259Z,19.50
2018-07-28T11:01:52.029Z,20.20
2018-07-28T11:04:19.778Z,21.80
2018-07-28T11:06:47.507Z,22.40
2018-07-28T11:11:42.889Z,20.80
2018-07-28T11:14:10.598Z,22.50
2018-07-28T11:16:38.343Z,25.40
2018-07-28T11:19:06.105Z,27.50
2018-07-28T11:21:33.783Z,27.00
2018-07-28T11:26:29.922Z,28.40
2018-07-28T11:28:57.659Z,28.60
2018-07-28T11:31:36.896Z,30.60
2018-07-28T11:34:15.819Z,32.30
2018-07-28T11:36:55.495Z,33.40
2018-07-28T11:40:33.122Z,31.40
2018-07-28T11:44:10.880Z,30.20
2018-07-28T11:46:38.615Z,28.10
2018-07-28T11:49:06.305Z,26.70
2018-07-28T11:51:34.062Z,25.40
2018-07-28T11:54:01.806Z,24.30
2018-07-28T11:56:29.502Z,23.80
2018-07-28T11:58:57.232Z,22.50
2018-07-28T12:01:24.943Z,23.80
2018-07-28T12:06:20.302Z,28.60
2018-07-28T12:08:48.038Z,30.30
2018-07-28T12:11:15.761Z,31.50
2018-07-28T12:13:43.483Z,29.20
2018-07-28T12:18:38.895Z,25.50
2018-07-28T12:21:06.556Z,23.40
2018-07-28T12:26:01.983Z,23.70
2018-07-28T12:33:24.907Z,24.10
2018-07-28T12:35:52.615Z,25.40
2018-07-28T12:38:20.359Z,27.00
2018-07-28T12:40:48.059Z,27.40
2018-07-28T12:45:43.366Z,28.70
2018-07-28T12:48:11.129Z,28.90
2018-07-28T12:50:38.903Z,29.20
2018-07-28T12:55:34.218Z,25.60
2018-07-28T13:00:29.556Z,26.60
2018-07-28T13:05:24.909Z,29.30
2018-07-28T13:07:52.631Z,31.10
2018-07-28T13:10:20.373Z,35.80
2018-07-28T13:12:48.091Z,37.20
2018-07-28T13:15:15.771Z,40.00
2018-07-28T13:17:43.483Z,41.90
2018-07-28T13:22:38.871Z,41.80
2018-07-28T13:25:06.595Z,41.40
2018-07-28T13:27:34.334Z,39.20
2018-07-28T13:30:02.076Z,38.40
2018-07-28T13:32:29.791Z,38.30
2018-07-28T13:34:57.526Z,35.30
2018-07-28T13:37:26.087Z,33.30
2018-07-28T13:39:53.806Z,33.90
2018-07-28T13:42:21.507Z,36.90
2018-07-28T13:44:49.203Z,38.20
2018-07-28T13:47:16.915Z,38.50
2018-07-28T13:49:44.659Z,39.40
2018-07-28T13:52:12.410Z,37.20
2018-07-28T13:54:40.117Z,35.50
2018-07-28T13:57:07.890Z,34.90
2018-07-28T13:59:35.600Z,34.20
2018-07-28T14:02:03.417Z,31.20
2018-07-28T14:04:31.130Z,30.50
2018-07-28T14:09:26.431Z,28.80
2018-07-28T14:11:54.124Z,29.30
2018-07-28T14:14:21.871Z,29.10
2018-07-28T14:16:49.615Z,29.10
2018-07-28T14:19:17.314Z,27.20
2018-07-28T14:21:45.060Z,28.60
2018-07-28T14:24:12.776Z,28.60
2018-07-28T14:26:40.479Z,28.50
2018-07-28T14:29:08.187Z,28.60
2018-07-28T14:31:36.001Z,30.20
2018-07-28T14:34:03.700Z,32.40
2018-07-28T14:36:31.471Z,33.10
2018-07-28T14:38:59.515Z,32.70
2018-07-28T14:41:27.207Z,33.20
2018-07-28T14:43:55.014Z,33.20
2018-07-28T14:46:22.691Z,33.40
2018-07-28T14:48:50.413Z,32.60
2018-07-28T14:51:18.143Z,31.90
2018-07-28T14:53:45.854Z,33.30
2018-07-28T14:56:13.553Z,33.30
2018-07-28T14:58:41.303Z,33.30
2018-07-28T15:01:08.989Z,33.60
2018-07-28T15:03:36.682Z,33.80
2018-07-28T15:06:04.444Z,34.00
2018-07-28T15:08:32.175Z,33.30
2018-07-28T15:10:59.977Z,33.50
2018-07-28T15:13:27.713Z,31.80
2018-07-28T15:15:55.467Z,31.70
2018-07-28T15:18:23.206Z,31.60
2018-07-28T15:20:50.923Z,31.50
2018-07-28T15:23:18.623Z,32.30
2018-07-28T15:25:46.308Z,33.10
2018-07-28T15:28:14.017Z,34.50
2018-07-28T15:30:41.771Z,35.20
2018-07-28T15:33:09.497Z,34.80
2018-07-28T15:35:37.189Z,35.20
2018-07-28T15:40:32.541Z,34.00
2018-07-28T15:43:00.259Z,34.10
2018-07-28T15:45:28.004Z,34.50
2018-07-28T15:47:55.812Z,34.70
2018-07-28T15:52:51.139Z,34.10
2018-07-28T15:55:18.875Z,34.00
2018-07-28T15:57:46.632Z,33.70
2018-07-28T16:00:16.931Z,33.10
2018-07-28T16:02:44.720Z,31.60
2018-07-28T16:05:12.593Z,31.40
2018-07-28T16:07:40.344Z,31.10
2018-07-28T16:10:08.089Z,29.70
2018-07-28T16:12:35.827Z,30.20
2018-07-28T16:15:04.036Z,30.70
2018-07-28T16:17:31.861Z,30.70
2018-07-28T16:19:59.809Z,30.90
2018-07-28T16:24:55.155Z,29.10
2018-07-28T16:27:22.851Z,28.70
2018-07-28T16:29:50.570Z,29.40
2018-07-28T16:34:46.023Z,30.00
2018-07-28T16:37:13.783Z,30.60
2018-07-28T16:39:41.528Z,30.00
2018-07-28T16:42:09.291Z,30.60
2018-07-28T16:44:37.048Z,30.10
2018-07-28T16:49:32.368Z,30.50
2018-07-28T16:52:00.127Z,31.30
2018-07-28T16:54:27.893Z,31.80
2018-07-28T16:56:55.607Z,31.60
2018-07-28T16:59:23.363Z,32.00
2018-07-28T17:01:51.108Z,32.20
2018-07-28T17:06:46.432Z,32.70
2018-07-28T17:09:14.192Z,33.20
2018-07-28T17:11:42.591Z,33.10
2018-07-28T17:14:10.511Z,32.90
2018-07-28T17:16:38.199Z,33.60
2018-07-28T17:19:05.906Z,34.00
2018-07-28T17:21:33.627Z,33.90
2018-07-28T17:26:29.024Z,34.70
2018-07-28T17:28:56.728Z,35.00
2018-07-28T17:31:24.514Z,35.30
2018-07-28T17:33:52.457Z,36.10
2018-07-28T17:38:47.908Z,36.40
2018-07-28T17:41:15.937Z,36.40
2018-07-28T17:43:43.832Z,36.40
2018-07-28T17:46:11.558Z,36.20
2018-07-28T17:48:39.325Z,36.40
2018-07-28T17:51:07.064Z,35.90
2018-07-28T17:53:34.799Z,35.50
2018-07-28T17:56:02.527Z,36.10
2018-07-28T17:58:30.219Z,35.90
2018-07-28T18:00:57.946Z,36.00
2018-07-28T18:03:25.719Z,36.50
2018-07-28T18:05:53.728Z,37.20
2018-07-28T18:08:21.441Z,36.90
2018-07-28T18:10:49.162Z,37.00
2018-07-28T18:13:16.967Z,36.50
2018-07-28T18:15:44.696Z,36.10
2018-07-28T18:18:12.655Z,36.60
2018-07-28T18:20:40.458Z,36.80
2018-07-28T18:23:08.166Z,36.90
2018-07-28T18:25:35.950Z,37.20
2018-07-28T18:28:03.712Z,37.20
2018-07-28T18:30:31.516Z,37.70
2018-07-28T18:32:59.207Z,37.70
2018-07-28T18:37:54.520Z,37.00
2018-07-28T18:40:22.263Z,37.40
2018-07-28T18:42:49.975Z,37.50
2018-07-28T18:45:17.734Z,37.00
2018-07-28T18:47:45.515Z,36.60
2018-07-28T18:50:13.248Z,36.80
2018-07-28T18:52:40.962Z,36.20
2018-07-28T18:55:08.716Z,36.70
2018-07-28T18:57:36.447Z,36.10
2018-07-28T19:00:06.347Z,36.10
2018-07-28T19:02:34.079Z,36.10
2018-07-28T19:05:01.839Z,35.90
2018-07-28T19:07:29.585Z,36.50
2018-07-28T19:14:58.052Z,36.20
2018-07-28T19:17:31.442Z,36.50
2018-07-28T19:19:59.182Z,36.50
2018-07-28T19:22:32.471Z,37.20
2018-07-28T19:25:00.186Z,37.00
2018-07-28T19:29:55.467Z,36.70
2018-07-28T19:32:23.191Z,36.90
2018-07-28T19:34:50.903Z,36.80
2018-07-28T19:37:20.708Z,36.90
2018-07-28T19:39:48.442Z,36.80
2018-07-28T19:42:21.974Z,36.80
2018-07-28T19:44:49.717Z,37.00
2018-07-28T19:47:17.460Z,36.80
2018-07-28T19:49:45.202Z,36.80
2018-07-28T19:52:13.031Z,36.50
2018-07-28T19:54:40.735Z,37.00
2018-07-28T19:59:36.083Z,36.40
2018-07-28T20:02:03.858Z,36.70
2018-07-28T20:04:31.603Z,36.80
2018-07-28T20:06:59.348Z,36.80
2018-07-28T20:11:54.698Z,37.20
2018-07-28T20:14:22.379Z,36.50
2018-07-28T20:16:50.194Z,36.70
2018-07-28T20:19:17.911Z,36.70
2018-07-28T20:21:45.597Z,36.50
2018-07-28T20:24:13.414Z,36.70
2018-07-28T20:26:41.233Z,37.30
2018-07-28T20:29:08.923Z,37.60
2018-07-28T20:34:04.238Z,39.50
2018-07-28T20:36:31.979Z,37.40
2018-07-28T20:38:59.697Z,37.00
2018-07-28T20:41:27.485Z,35.80
2018-07-28T20:46:22.764Z,36.80
2018-07-28T20:51:18.037Z,36.70
2018-07-28T20:53:45.751Z,35.60
2018-07-28T20:58:41.100Z,37.30
2018-07-28T21:01:08.836Z,35.70
2018-07-28T21:10:59.863Z,35.50
2018-07-28T21:13:27.570Z,35.70
2018-07-28T21:15:55.633Z,35.40
2018-07-28T21:20:51.703Z,36.00
2018-07-28T21:23:19.512Z,35.30
2018-07-28T21:25:47.249Z,35.50
2018-07-28T21:28:14.967Z,35.40
2018-07-28T21:30:42.723Z,35.40
2018-07-28T21:33:10.451Z,35.60
2018-07-28T21:35:38.183Z,35.50
2018-07-28T21:38:06.355Z,35.30
2018-07-28T21:40:34.139Z,35.10
2018-07-28T21:43:01.864Z,34.70
2018-07-28T21:47:57.242Z,35.00
2018-07-28T21:50:24.987Z,34.90
2018-07-28T21:52:52.931Z,34.80
2018-07-28T21:55:20.684Z,34.20
2018-07-28T22:00:16.267Z,34.40
2018-07-28T22:02:44.063Z,33.90
2018-07-28T22:05:11.875Z,33.50
2018-07-28T22:07:39.588Z,34.00
2018-07-28T22:10:07.357Z,33.70
2018-07-28T22:12:35.103Z,34.10
2018-07-28T22:15:02.939Z,33.50
2018-07-28T22:17:30.673Z,34.10
2018-07-28T22:19:58.473Z,33.30
2018-07-28T22:22:26.199Z,33.00
2018-07-28T22:24:54.051Z,33.00
2018-07-28T22:27:21.763Z,33.20
2018-07-28T22:29:49.480Z,32.60
2018-07-28T22:32:17.183Z,32.90
2018-07-28T22:34:44.922Z,32.60
2018-07-28T22:37:12.719Z,32.50
2018-07-28T22:39:40.483Z,32.00
2018-07-28T22:42:08.196Z,31.50
2018-07-28T22:44:35.883Z,32.20
2018-07-28T22:49:31.201Z,32.00
2018-07-28T22:56:54.121Z,33.50
2018-07-28T22:59:21.882Z,32.20
2018-07-28T23:01:49.603Z,32.60
2018-07-28T23:04:17.301Z,33.20
2018-07-28T23:06:45.040Z,33.10
2018-07-28T23:14:08.852Z,34.90
2018-07-28T23:19:04.280Z,35.10
2018-07-28T23:23:59.635Z,35.60
2018-07-28T23:26:27.342Z,35.00
2018-07-28T23:28:55.107Z,35.00
2018-07-28T23:31:22.843Z,35.30
2018-07-28T23:33:50.551Z,36.60
2018-07-28T23:38:45.908Z,36.30
2018-07-28T23:41:13.639Z,36.30
2018-07-28T23:43:41.407Z,36.40
2018-07-28T23:46:09.171Z,37.90
2018-07-28T23:51:04.518Z,38.90
2018-07-28T23:53:32.255Z,39.20
2018-07-28T23:58:27.588Z,41.20
